sensor_id;sensor_type;location;lat;lon;timestamp;P1;durP1;ratioP1;P2;durP2;ratioP2
2029;SDS011;1020;48.854;8.830;2023-08-17T00:01:58;9.10;;;8.40;;
2029;SDS011;1020;48.854;8.830;2023-08-17T00:04:24;9.77;;;8.93;;
2029;SDS011;1020;48.854;8.830;2023-08-17T00:06:51;11.03;;;10.03;;
2029;SDS011;1020;48.854;8.830;2023-08-17T00:09:18;11.37;;;10.40;;
2029;SDS011;1020;48.854;8.830;2023-08-17T00:11:45;9.93;;;9.07;;
2029;SDS011;1020;48.854;8.830;2023-08-17T00:14:11;10.17;;;9.37;;
2029;SDS011;1020;48.854;8.830;2023-08-17T00:16:39;9.20;;;8.50;;
2029;SDS011;1020;48.854;8.830;2023-08-17T00:19:06;11.10;;;10.20;;
2029;SDS011;1020;48.854;8.830;2023-08-17T00:21:33;11.93;;;9.17;;
2029;SDS011;1020;48.854;8.830;2023-08-17T00:24:01;9.70;;;8.87;;
2029;SDS011;1020;48.854;8.830;2023-08-17T00:26:27;9.93;;;9.10;;
2029;SDS011;1020;48.854;8.830;2023-08-17T00:28:54;8.70;;;8.07;;
2029;SDS011;1020;48.854;8.830;2023-08-17T00:31:21;7.40;;;6.90;;
2029;SDS011;1020;48.854;8.830;2023-08-17T00:33:49;9.47;;;7.60;;
2029;SDS011;1020;48.854;8.830;2023-08-17T00:36:16;8.70;;;7.93;;
2029;SDS011;1020;48.854;8.830;2023-08-17T00:38:42;8.60;;;7.90;;
2029;SDS011;1020;48.854;8.830;2023-08-17T00:41:09;8.20;;;7.40;;
2029;SDS011;1020;48.854;8.830;2023-08-17T00:43:36;8.70;;;8.00;;
2029;SDS011;1020;48.854;8.830;2023-08-17T00:46:03;8.80;;;8.10;;
2029;SDS011;1020;48.854;8.830;2023-08-17T00:48:30;9.73;;;8.87;;
2029;SDS011;1020;48.854;8.830;2023-08-17T00:51:00;8.70;;;7.80;;
2029;SDS011;1020;48.854;8.830;2023-08-17T00:53:28;8.80;;;8.10;;
2029;SDS011;1020;48.854;8.830;2023-08-17T00:55:56;8.10;;;7.50;;
2029;SDS011;1020;48.854;8.830;2023-08-17T00:58:24;8.50;;;7.70;;
2029;SDS011;1020;48.854;8.830;2023-08-17T01:00:50;8.20;;;7.53;;
2029;SDS011;1020;48.854;8.830;2023-08-17T01:03:17;9.10;;;8.33;;
2029;SDS011;1020;48.854;8.830;2023-08-17T01:05:46;8.20;;;7.60;;
2029;SDS011;1020;48.854;8.830;2023-08-17T01:08:14;7.03;;;6.47;;
2029;SDS011;1020;48.854;8.830;2023-08-17T01:10:57;7.97;;;7.30;;
2029;SDS011;1020;48.854;8.830;2023-08-17T01:13:31;7.13;;;6.50;;
2029;SDS011;1020;48.854;8.830;2023-08-17T01:16:05;6.53;;;6.03;;
2029;SDS011;1020;48.854;8.830;2023-08-17T01:18:34;6.60;;;6.10;;
2029;SDS011;1020;48.854;8.830;2023-08-17T01:21:03;8.73;;;8.03;;
2029;SDS011;1020;48.854;8.830;2023-08-17T01:23:34;7.10;;;6.50;;
2029;SDS011;1020;48.854;8.830;2023-08-17T01:26:00;6.57;;;6.07;;
2029;SDS011;1020;48.854;8.830;2023-08-17T01:28:27;6.60;;;6.10;;
2029;SDS011;1020;48.854;8.830;2023-08-17T01:30:55;6.90;;;6.30;;
2029;SDS011;1020;48.854;8.830;2023-08-17T01:33:27;7.93;;;7.33;;
2029;SDS011;1020;48.854;8.830;2023-08-17T01:36:01;9.60;;;8.90;;
2029;SDS011;1020;48.854;8.830;2023-08-17T01:38:31;8.33;;;7.63;;
2029;SDS011;1020;48.854;8.830;2023-08-17T01:41:01;8.17;;;7.50;;
2029;SDS011;1020;48.854;8.830;2023-08-17T01:43:30;9.83;;;9.07;;
2029;SDS011;1020;48.854;8.830;2023-08-17T01:45:57;10.17;;;9.17;;
2029;SDS011;1020;48.854;8.830;2023-08-17T01:48:25;8.50;;;7.80;;
2029;SDS011;1020;48.854;8.830;2023-08-17T01:50:52;9.53;;;8.73;;
2029;SDS011;1020;48.854;8.830;2023-08-17T01:53:19;7.00;;;6.50;;
2029;SDS011;1020;48.854;8.830;2023-08-17T01:55:47;9.23;;;8.47;;
2029;SDS011;1020;48.854;8.830;2023-08-17T01:58:13;8.83;;;8.00;;
2029;SDS011;1020;48.854;8.830;2023-08-17T02:00:40;9.63;;;8.80;;
2029;SDS011;1020;48.854;8.830;2023-08-17T02:03:07;9.00;;;8.30;;
2029;SDS011;1020;48.854;8.830;2023-08-17T02:05:34;8.50;;;7.90;;
2029;SDS011;1020;48.854;8.830;2023-08-17T02:08:01;8.00;;;7.40;;
2029;SDS011;1020;48.854;8.830;2023-08-17T02:10:27;9.57;;;7.00;;
2029;SDS011;1020;48.854;8.830;2023-08-17T02:12:56;6.93;;;6.43;;
2029;SDS011;1020;48.854;8.830;2023-08-17T02:15:22;7.97;;;7.00;;
2029;SDS011;1020;48.854;8.830;2023-08-17T02:17:49;7.33;;;6.80;;
2029;SDS011;1020;48.854;8.830;2023-08-17T02:20:16;7.63;;;7.07;;
2029;SDS011;1020;48.854;8.830;2023-08-17T02:22:43;7.77;;;7.17;;
2029;SDS011;1020;48.854;8.830;2023-08-17T02:25:10;7.00;;;6.40;;
2029;SDS011;1020;48.854;8.830;2023-08-17T02:27:36;8.07;;;7.30;;
2029;SDS011;1020;48.854;8.830;2023-08-17T02:30:05;8.07;;;7.43;;
2029;SDS011;1020;48.854;8.830;2023-08-17T02:32:33;8.10;;;7.50;;
2029;SDS011;1020;48.854;8.830;2023-08-17T02:34:59;6.33;;;5.77;;
2029;SDS011;1020;48.854;8.830;2023-08-17T02:37:26;7.73;;;7.03;;
2029;SDS011;1020;48.854;8.830;2023-08-17T02:39:53;7.00;;;6.50;;
2029;SDS011;1020;48.854;8.830;2023-08-17T02:42:20;6.40;;;6.00;;
2029;SDS011;1020;48.854;8.830;2023-08-17T02:44:46;6.77;;;6.17;;
2029;SDS011;1020;48.854;8.830;2023-08-17T02:47:15;7.17;;;6.50;;
2029;SDS011;1020;48.854;8.830;2023-08-17T02:49:41;8.10;;;7.40;;
2029;SDS011;1020;48.854;8.830;2023-08-17T02:52:08;7.23;;;6.63;;
2029;SDS011;1020;48.854;8.830;2023-08-17T02:54:36;7.20;;;6.70;;
2029;SDS011;1020;48.854;8.830;2023-08-17T02:57:02;7.17;;;6.67;;
2029;SDS011;1020;48.854;8.830;2023-08-17T02:59:29;8.10;;;7.30;;
2029;SDS011;1020;48.854;8.830;2023-08-17T03:01:56;7.93;;;7.33;;
2029;SDS011;1020;48.854;8.830;2023-08-17T03:04:24;6.87;;;6.27;;
2029;SDS011;1020;48.854;8.830;2023-08-17T03:06:51;7.20;;;6.70;;
2029;SDS011;1020;48.854;8.830;2023-08-17T03:09:18;9.57;;;8.67;;
2029;SDS011;1020;48.854;8.830;2023-08-17T03:11:44;11.60;;;10.00;;
2029;SDS011;1020;48.854;8.830;2023-08-17T03:14:11;10.00;;;9.00;;
2029;SDS011;1020;48.854;8.830;2023-08-17T03:16:38;9.00;;;8.20;;
2029;SDS011;1020;48.854;8.830;2023-08-17T03:19:05;13.20;;;9.53;;
2029;SDS011;1020;48.854;8.830;2023-08-17T03:21:37;16.80;;;11.13;;
2029;SDS011;1020;48.854;8.830;2023-08-17T03:24:04;17.20;;;12.37;;
2029;SDS011;1020;48.854;8.830;2023-08-17T03:26:31;26.60;;;14.40;;
2029;SDS011;1020;48.854;8.830;2023-08-17T03:28:58;21.20;;;14.60;;
2029;SDS011;1020;48.854;8.830;2023-08-17T03:31:25;31.70;;;14.70;;
2029;SDS011;1020;48.854;8.830;2023-08-17T03:33:52;37.43;;;15.90;;
2029;SDS011;1020;48.854;8.830;2023-08-17T03:36:20;89.20;;;19.57;;
2029;SDS011;1020;48.854;8.830;2023-08-17T03:38:48;70.93;;;17.53;;
2029;SDS011;1020;48.854;8.830;2023-08-17T03:41:15;33.43;;;15.07;;
2029;SDS011;1020;48.854;8.830;2023-08-17T03:43:42;234.90;;;29.83;;
2029;SDS011;1020;48.854;8.830;2023-08-17T03:46:08;118.63;;;22.97;;
2029;SDS011;1020;48.854;8.830;2023-08-17T03:48:35;44.17;;;16.83;;
2029;SDS011;1020;48.854;8.830;2023-08-17T03:51:02;34.87;;;19.00;;
2029;SDS011;1020;48.854;8.830;2023-08-17T03:53:29;31.13;;;17.53;;
2029;SDS011;1020;48.854;8.830;2023-08-17T03:55:57;30.23;;;17.80;;
2029;SDS011;1020;48.854;8.830;2023-08-17T03:58:24;31.03;;;17.17;;
2029;SDS011;1020;48.854;8.830;2023-08-17T04:00:51;24.97;;;16.97;;
2029;SDS011;1020;48.854;8.830;2023-08-17T04:03:19;29.73;;;17.40;;
2029;SDS011;1020;48.854;8.830;2023-08-17T04:05:46;28.10;;;17.60;;
2029;SDS011;1020;48.854;8.830;2023-08-17T04:08:12;53.70;;;21.10;;
2029;SDS011;1020;48.854;8.830;2023-08-17T04:10:39;131.37;;;26.10;;
2029;SDS011;1020;48.854;8.830;2023-08-17T04:13:07;68.50;;;21.50;;
2029;SDS011;1020;48.854;8.830;2023-08-17T04:15:34;21.67;;;15.73;;
2029;SDS011;1020;48.854;8.830;2023-08-17T04:18:01;24.70;;;18.07;;
2029;SDS011;1020;48.854;8.830;2023-08-17T04:20:28;27.07;;;18.43;;
2029;SDS011;1020;48.854;8.830;2023-08-17T04:22:54;24.47;;;17.90;;
2029;SDS011;1020;48.854;8.830;2023-08-17T04:25:21;25.70;;;18.43;;
2029;SDS011;1020;48.854;8.830;2023-08-17T04:27:48;34.30;;;19.13;;
2029;SDS011;1020;48.854;8.830;2023-08-17T04:30:16;28.67;;;18.60;;
2029;SDS011;1020;48.854;8.830;2023-08-17T04:32:43;70.20;;;21.37;;
2029;SDS011;1020;48.854;8.830;2023-08-17T04:35:15;25.03;;;17.33;;
2029;SDS011;1020;48.854;8.830;2023-08-17T04:37:42;27.33;;;17.80;;
2029;SDS011;1020;48.854;8.830;2023-08-17T04:40:09;22.67;;;17.47;;
2029;SDS011;1020;48.854;8.830;2023-08-17T04:42:36;27.10;;;17.20;;
2029;SDS011;1020;48.854;8.830;2023-08-17T04:45:03;29.07;;;18.53;;
2029;SDS011;1020;48.854;8.830;2023-08-17T04:47:31;20.33;;;15.80;;
2029;SDS011;1020;48.854;8.830;2023-08-17T04:49:58;16.67;;;14.10;;
2029;SDS011;1020;48.854;8.830;2023-08-17T04:52:25;19.50;;;14.80;;
2029;SDS011;1020;48.854;8.830;2023-08-17T04:54:51;17.90;;;13.47;;
2029;SDS011;1020;48.854;8.830;2023-08-17T04:57:18;18.43;;;15.00;;
2029;SDS011;1020;48.854;8.830;2023-08-17T04:59:45;20.23;;;14.77;;
2029;SDS011;1020;48.854;8.830;2023-08-17T05:02:12;20.97;;;16.60;;
2029;SDS011;1020;48.854;8.830;2023-08-17T05:04:40;23.83;;;17.10;;
2029;SDS011;1020;48.854;8.830;2023-08-17T05:07:07;20.70;;;15.90;;
2029;SDS011;1020;48.854;8.830;2023-08-17T05:09:33;20.90;;;14.90;;
2029;SDS011;1020;48.854;8.830;2023-08-17T05:12:00;15.80;;;12.90;;
2029;SDS011;1020;48.854;8.830;2023-08-17T05:14:27;14.97;;;13.37;;
2029;SDS011;1020;48.854;8.830;2023-08-17T05:16:54;16.43;;;13.47;;
2029;SDS011;1020;48.854;8.830;2023-08-17T05:19:21;18.53;;;14.73;;
2029;SDS011;1020;48.854;8.830;2023-08-17T05:21:49;18.20;;;14.83;;
2029;SDS011;1020;48.854;8.830;2023-08-17T05:24:16;18.47;;;15.00;;
2029;SDS011;1020;48.854;8.830;2023-08-17T05:26:45;17.10;;;13.07;;
2029;SDS011;1020;48.854;8.830;2023-08-17T05:29:12;13.00;;;11.70;;
2029;SDS011;1020;48.854;8.830;2023-08-17T05:31:39;15.20;;;11.80;;
2029;SDS011;1020;48.854;8.830;2023-08-17T05:34:06;13.47;;;11.90;;
2029;SDS011;1020;48.854;8.830;2023-08-17T05:36:32;10.77;;;9.67;;
2029;SDS011;1020;48.854;8.830;2023-08-17T05:39:01;15.17;;;12.60;;
2029;SDS011;1020;48.854;8.830;2023-08-17T05:41:28;14.20;;;12.17;;
2029;SDS011;1020;48.854;8.830;2023-08-17T05:43:55;13.67;;;12.10;;
2029;SDS011;1020;48.854;8.830;2023-08-17T05:46:22;13.83;;;12.40;;
2029;SDS011;1020;48.854;8.830;2023-08-17T05:48:49;14.20;;;11.93;;
2029;SDS011;1020;48.854;8.830;2023-08-17T05:51:15;15.20;;;12.40;;
2029;SDS011;1020;48.854;8.830;2023-08-17T05:53:42;12.37;;;11.07;;
2029;SDS011;1020;48.854;8.830;2023-08-17T05:56:10;11.23;;;10.13;;
2029;SDS011;1020;48.854;8.830;2023-08-17T05:58:37;15.00;;;11.70;;
2029;SDS011;1020;48.854;8.830;2023-08-17T06:01:04;18.67;;;13.50;;
2029;SDS011;1020;48.854;8.830;2023-08-17T06:03:32;12.70;;;11.33;;
2029;SDS011;1020;48.854;8.830;2023-08-17T06:05:59;15.93;;;13.07;;
2029;SDS011;1020;48.854;8.830;2023-08-17T06:08:26;16.53;;;13.20;;
2029;SDS011;1020;48.854;8.830;2023-08-17T06:10:53;16.13;;;12.23;;
2029;SDS011;1020;48.854;8.830;2023-08-17T06:13:21;23.13;;;15.10;;
2029;SDS011;1020;48.854;8.830;2023-08-17T06:15:48;18.67;;;13.23;;
2029;SDS011;1020;48.854;8.830;2023-08-17T06:18:15;18.43;;;11.93;;
2029;SDS011;1020;48.854;8.830;2023-08-17T06:20:42;14.30;;;12.90;;
2029;SDS011;1020;48.854;8.830;2023-08-17T06:23:11;12.70;;;11.40;;
2029;SDS011;1020;48.854;8.830;2023-08-17T06:25:38;14.63;;;12.90;;
2029;SDS011;1020;48.854;8.830;2023-08-17T06:28:05;13.10;;;11.77;;
2029;SDS011;1020;48.854;8.830;2023-08-17T06:30:33;13.90;;;12.20;;
2029;SDS011;1020;48.854;8.830;2023-08-17T06:33:00;16.87;;;11.80;;
2029;SDS011;1020;48.854;8.830;2023-08-17T06:35:27;15.13;;;11.87;;
2029;SDS011;1020;48.854;8.830;2023-08-17T06:37:54;13.17;;;11.87;;
2029;SDS011;1020;48.854;8.830;2023-08-17T06:40:22;12.70;;;11.60;;
2029;SDS011;1020;48.854;8.830;2023-08-17T06:42:49;14.50;;;13.00;;
2029;SDS011;1020;48.854;8.830;2023-08-17T06:45:17;13.23;;;11.93;;
2029;SDS011;1020;48.854;8.830;2023-08-17T06:47:45;13.27;;;12.17;;
2029;SDS011;1020;48.854;8.830;2023-08-17T06:50:13;13.27;;;11.63;;
2029;SDS011;1020;48.854;8.830;2023-08-17T06:52:40;11.33;;;10.37;;
2029;SDS011;1020;48.854;8.830;2023-08-17T06:55:07;11.30;;;10.40;;
2029;SDS011;1020;48.854;8.830;2023-08-17T06:57:35;10.73;;;9.73;;
2029;SDS011;1020;48.854;8.830;2023-08-17T07:00:02;10.53;;;9.63;;
2029;SDS011;1020;48.854;8.830;2023-08-17T07:02:30;9.90;;;9.10;;
2029;SDS011;1020;48.854;8.830;2023-08-17T07:04:58;10.50;;;9.60;;
2029;SDS011;1020;48.854;8.830;2023-08-17T07:07:25;9.80;;;9.10;;
2029;SDS011;1020;48.854;8.830;2023-08-17T07:09:52;9.73;;;8.90;;
2029;SDS011;1020;48.854;8.830;2023-08-17T07:12:18;9.43;;;8.63;;
2029;SDS011;1020;48.854;8.830;2023-08-17T07:14:45;10.63;;;9.63;;
2029;SDS011;1020;48.854;8.830;2023-08-17T07:17:12;11.70;;;10.60;;
2029;SDS011;1020;48.854;8.830;2023-08-17T07:19:38;10.80;;;9.80;;
2029;SDS011;1020;48.854;8.830;2023-08-17T07:22:07;10.60;;;9.70;;
2029;SDS011;1020;48.854;8.830;2023-08-17T07:24:33;10.17;;;9.37;;
2029;SDS011;1020;48.854;8.830;2023-08-17T07:27:00;9.40;;;8.70;;
2029;SDS011;1020;48.854;8.830;2023-08-17T07:29:27;9.80;;;8.93;;
2029;SDS011;1020;48.854;8.830;2023-08-17T07:31:54;9.30;;;8.57;;
2029;SDS011;1020;48.854;8.830;2023-08-17T07:34:23;8.97;;;8.30;;
2029;SDS011;1020;48.854;8.830;2023-08-17T07:36:54;7.17;;;6.67;;
2029;SDS011;1020;48.854;8.830;2023-08-17T07:39:26;7.50;;;6.80;;
2029;SDS011;1020;48.854;8.830;2023-08-17T07:41:53;4.77;;;4.37;;
2029;SDS011;1020;48.854;8.830;2023-08-17T07:44:20;6.70;;;6.20;;
2029;SDS011;1020;48.854;8.830;2023-08-17T07:46:47;5.57;;;5.17;;
2029;SDS011;1020;48.854;8.830;2023-08-17T07:49:13;4.93;;;4.63;;
2029;SDS011;1020;48.854;8.830;2023-08-17T07:51:40;6.03;;;5.53;;
2029;SDS011;1020;48.854;8.830;2023-08-17T07:54:07;7.20;;;6.60;;
2029;SDS011;1020;48.854;8.830;2023-08-17T07:56:35;6.70;;;6.20;;
2029;SDS011;1020;48.854;8.830;2023-08-17T07:59:02;9.10;;;8.40;;
2029;SDS011;1020;48.854;8.830;2023-08-17T08:01:29;9.70;;;8.90;;
2029;SDS011;1020;48.854;8.830;2023-08-17T08:03:56;7.47;;;6.97;;
2029;SDS011;1020;48.854;8.830;2023-08-17T08:06:22;7.80;;;7.30;;
2029;SDS011;1020;48.854;8.830;2023-08-17T08:08:49;5.67;;;5.20;;
2029;SDS011;1020;48.854;8.830;2023-08-17T08:11:16;5.03;;;4.73;;
2029;SDS011;1020;48.854;8.830;2023-08-17T08:13:44;5.00;;;4.07;;
2029;SDS011;1020;48.854;8.830;2023-08-17T08:16:11;6.17;;;5.73;;
2029;SDS011;1020;48.854;8.830;2023-08-17T08:18:37;5.43;;;4.93;;
2029;SDS011;1020;48.854;8.830;2023-08-17T08:21:04;5.60;;;5.30;;
2029;SDS011;1020;48.854;8.830;2023-08-17T08:23:31;4.63;;;4.20;;
2029;SDS011;1020;48.854;8.830;2023-08-17T08:25:58;4.80;;;4.40;;
2029;SDS011;1020;48.854;8.830;2023-08-17T08:28:24;5.53;;;5.10;;
2029;SDS011;1020;48.854;8.830;2023-08-17T08:30:52;5.53;;;5.13;;
2029;SDS011;1020;48.854;8.830;2023-08-17T08:33:19;5.43;;;5.03;;
2029;SDS011;1020;48.854;8.830;2023-08-17T08:35:46;5.70;;;5.20;;
2029;SDS011;1020;48.854;8.830;2023-08-17T08:40:40;4.80;;;4.50;;
2029;SDS011;1020;48.854;8.830;2023-08-17T08:43:08;4.40;;;4.20;;
2029;SDS011;1020;48.854;8.830;2023-08-17T08:45:35;3.97;;;3.77;;
2029;SDS011;1020;48.854;8.830;2023-08-17T08:48:07;3.73;;;3.40;;
2029;SDS011;1020;48.854;8.830;2023-08-17T08:50:35;4.90;;;4.37;;
2029;SDS011;1020;48.854;8.830;2023-08-17T08:53:02;4.53;;;4.23;;
2029;SDS011;1020;48.854;8.830;2023-08-17T08:55:32;3.80;;;3.60;;
2029;SDS011;1020;48.854;8.830;2023-08-17T08:58:03;3.77;;;3.57;;
2029;SDS011;1020;48.854;8.830;2023-08-17T09:00:30;3.30;;;3.10;;
2029;SDS011;1020;48.854;8.830;2023-08-17T09:02:59;3.87;;;3.43;;
2029;SDS011;1020;48.854;8.830;2023-08-17T09:05:29;3.67;;;3.37;;
2029;SDS011;1020;48.854;8.830;2023-08-17T09:07:59;4.10;;;3.77;;
2029;SDS011;1020;48.854;8.830;2023-08-17T09:10:28;3.50;;;3.20;;
2029;SDS011;1020;48.854;8.830;2023-08-17T09:12:55;4.03;;;3.73;;
2029;SDS011;1020;48.854;8.830;2023-08-17T09:15:21;5.67;;;3.60;;
2029;SDS011;1020;48.854;8.830;2023-08-17T09:17:48;3.63;;;3.43;;
2029;SDS011;1020;48.854;8.830;2023-08-17T09:23:10;3.20;;;3.10;;
2029;SDS011;1020;48.854;8.830;2023-08-17T09:25:39;3.53;;;3.20;;
2029;SDS011;1020;48.854;8.830;2023-08-17T09:28:07;3.53;;;3.33;;
2029;SDS011;1020;48.854;8.830;2023-08-17T09:30:39;3.60;;;3.40;;
2029;SDS011;1020;48.854;8.830;2023-08-17T09:33:18;3.30;;;3.10;;
2029;SDS011;1020;48.854;8.830;2023-08-17T09:35:48;3.73;;;3.53;;
2029;SDS011;1020;48.854;8.830;2023-08-17T09:38:15;3.43;;;3.23;;
2029;SDS011;1020;48.854;8.830;2023-08-17T09:40:42;3.97;;;3.63;;
2029;SDS011;1020;48.854;8.830;2023-08-17T09:43:09;3.57;;;3.27;;
2029;SDS011;1020;48.854;8.830;2023-08-17T09:45:37;3.70;;;3.40;;
2029;SDS011;1020;48.854;8.830;2023-08-17T09:48:04;3.03;;;2.83;;
2029;SDS011;1020;48.854;8.830;2023-08-17T09:50:32;3.70;;;3.40;;
2029;SDS011;1020;48.854;8.830;2023-08-17T09:53:01;4.13;;;3.83;;
2029;SDS011;1020;48.854;8.830;2023-08-17T09:55:29;3.93;;;3.50;;
2029;SDS011;1020;48.854;8.830;2023-08-17T09:57:57;4.03;;;3.73;;
2029;SDS011;1020;48.854;8.830;2023-08-17T10:00:24;3.87;;;3.67;;
2029;SDS011;1020;48.854;8.830;2023-08-17T10:02:52;3.30;;;3.10;;
2029;SDS011;1020;48.854;8.830;2023-08-17T10:05:19;3.80;;;3.43;;
2029;SDS011;1020;48.854;8.830;2023-08-17T10:07:47;4.77;;;3.20;;
2029;SDS011;1020;48.854;8.830;2023-08-17T10:10:21;3.27;;;3.07;;
2029;SDS011;1020;48.854;8.830;2023-08-17T10:12:52;3.90;;;3.13;;
2029;SDS011;1020;48.854;8.830;2023-08-17T10:15:25;2.93;;;2.73;;
2029;SDS011;1020;48.854;8.830;2023-08-17T10:17:58;3.80;;;3.60;;
2029;SDS011;1020;48.854;8.830;2023-08-17T10:20:31;4.37;;;4.07;;
2029;SDS011;1020;48.854;8.830;2023-08-17T10:23:01;3.97;;;3.77;;
2029;SDS011;1020;48.854;8.830;2023-08-17T10:25:38;3.40;;;3.20;;
2029;SDS011;1020;48.854;8.830;2023-08-17T10:28:05;3.70;;;3.50;;
2029;SDS011;1020;48.854;8.830;2023-08-17T10:30:33;4.47;;;4.17;;
2029;SDS011;1020;48.854;8.830;2023-08-17T10:33:01;3.60;;;3.40;;
2029;SDS011;1020;48.854;8.830;2023-08-17T10:35:29;4.60;;;4.20;;
2029;SDS011;1020;48.854;8.830;2023-08-17T10:37:56;5.20;;;4.90;;
2029;SDS011;1020;48.854;8.830;2023-08-17T10:40:25;3.90;;;3.70;;
2029;SDS011;1020;48.854;8.830;2023-08-17T10:42:54;4.47;;;4.17;;
2029;SDS011;1020;48.854;8.830;2023-08-17T10:45:25;3.97;;;3.73;;
2029;SDS011;1020;48.854;8.830;2023-08-17T10:47:59;4.70;;;4.30;;
2029;SDS011;1020;48.854;8.830;2023-08-17T10:50:58;3.83;;;3.63;;
2029;SDS011;1020;48.854;8.830;2023-08-17T10:53:26;4.20;;;4.00;;
2029;SDS011;1020;48.854;8.830;2023-08-17T10:55:59;4.77;;;4.47;;
2029;SDS011;1020;48.854;8.830;2023-08-17T10:58:27;4.90;;;4.50;;
2029;SDS011;1020;48.854;8.830;2023-08-17T11:00:57;5.37;;;4.83;;
2029;SDS011;1020;48.854;8.830;2023-08-17T11:03:24;4.00;;;3.80;;
2029;SDS011;1020;48.854;8.830;2023-08-17T11:05:51;4.73;;;4.43;;
2029;SDS011;1020;48.854;8.830;2023-08-17T11:08:21;3.60;;;3.40;;
2029;SDS011;1020;48.854;8.830;2023-08-17T11:10:56;3.90;;;3.70;;
2029;SDS011;1020;48.854;8.830;2023-08-17T11:13:24;5.40;;;5.00;;
2029;SDS011;1020;48.854;8.830;2023-08-17T11:15:54;5.87;;;5.47;;
2029;SDS011;1020;48.854;8.830;2023-08-17T11:18:21;5.20;;;4.80;;
2029;SDS011;1020;48.854;8.830;2023-08-17T11:20:48;4.70;;;4.40;;
2029;SDS011;1020;48.854;8.830;2023-08-17T11:23:16;5.57;;;5.00;;
2029;SDS011;1020;48.854;8.830;2023-08-17T11:25:44;4.33;;;4.03;;
2029;SDS011;1020;48.854;8.830;2023-08-17T11:28:11;4.60;;;4.40;;
2029;SDS011;1020;48.854;8.830;2023-08-17T11:30:40;4.70;;;4.50;;
2029;SDS011;1020;48.854;8.830;2023-08-17T11:33:10;5.73;;;5.30;;
2029;SDS011;1020;48.854;8.830;2023-08-17T11:35:38;5.50;;;5.00;;
2029;SDS011;1020;48.854;8.830;2023-08-17T11:38:05;5.70;;;5.40;;
2029;SDS011;1020;48.854;8.830;2023-08-17T11:40:33;5.27;;;4.97;;
2029;SDS011;1020;48.854;8.830;2023-08-17T11:42:59;4.40;;;4.20;;
2029;SDS011;1020;48.854;8.830;2023-08-17T11:45:26;5.30;;;4.60;;
2029;SDS011;1020;48.854;8.830;2023-08-17T11:47:54;5.77;;;5.40;;
2029;SDS011;1020;48.854;8.830;2023-08-17T11:50:21;4.70;;;4.30;;
2029;SDS011;1020;48.854;8.830;2023-08-17T11:52:48;5.50;;;5.20;;
2029;SDS011;1020;48.854;8.830;2023-08-17T11:55:15;5.00;;;4.70;;
2029;SDS011;1020;48.854;8.830;2023-08-17T11:57:44;5.33;;;5.03;;
2029;SDS011;1020;48.854;8.830;2023-08-17T12:00:16;5.17;;;4.67;;
2029;SDS011;1020;48.854;8.830;2023-08-17T12:02:46;5.97;;;5.10;;
2029;SDS011;1020;48.854;8.830;2023-08-17T12:05:15;5.77;;;5.27;;
2029;SDS011;1020;48.854;8.830;2023-08-17T12:07:45;5.00;;;4.60;;
2029;SDS011;1020;48.854;8.830;2023-08-17T12:10:12;6.00;;;5.50;;
2029;SDS011;1020;48.854;8.830;2023-08-17T12:12:39;5.50;;;5.10;;
2029;SDS011;1020;48.854;8.830;2023-08-17T12:15:06;6.43;;;5.83;;
2029;SDS011;1020;48.854;8.830;2023-08-17T12:17:34;6.43;;;6.03;;
2029;SDS011;1020;48.854;8.830;2023-08-17T12:20:02;7.37;;;6.80;;
2029;SDS011;1020;48.854;8.830;2023-08-17T12:22:31;8.20;;;7.53;;
2029;SDS011;1020;48.854;8.830;2023-08-17T12:24:57;7.03;;;6.60;;
2029;SDS011;1020;48.854;8.830;2023-08-17T12:27:24;8.03;;;7.53;;
2029;SDS011;1020;48.854;8.830;2023-08-17T12:29:51;7.90;;;7.33;;
2029;SDS011;1020;48.854;8.830;2023-08-17T12:32:19;9.47;;;8.77;;
2029;SDS011;1020;48.854;8.830;2023-08-17T12:34:46;10.50;;;9.60;;
2029;SDS011;1020;48.854;8.830;2023-08-17T12:37:18;10.37;;;9.47;;
2029;SDS011;1020;48.854;8.830;2023-08-17T12:39:47;9.43;;;8.63;;
2029;SDS011;1020;48.854;8.830;2023-08-17T12:42:14;9.67;;;8.87;;
2029;SDS011;1020;48.854;8.830;2023-08-17T12:44:41;11.83;;;10.83;;
2029;SDS011;1020;48.854;8.830;2023-08-17T12:47:08;11.53;;;10.53;;
2029;SDS011;1020;48.854;8.830;2023-08-17T12:49:35;11.37;;;10.40;;
2029;SDS011;1020;48.854;8.830;2023-08-17T12:52:02;10.73;;;9.90;;
2029;SDS011;1020;48.854;8.830;2023-08-17T12:54:29;10.80;;;10.00;;
2029;SDS011;1020;48.854;8.830;2023-08-17T12:56:57;13.30;;;12.00;;
2029;SDS011;1020;48.854;8.830;2023-08-17T12:59:24;13.50;;;12.40;;
2029;SDS011;1020;48.854;8.830;2023-08-17T13:01:51;12.13;;;11.13;;
2029;SDS011;1020;48.854;8.830;2023-08-17T13:04:18;13.20;;;12.00;;
2029;SDS011;1020;48.854;8.830;2023-08-17T13:06:44;13.33;;;12.10;;
2029;SDS011;1020;48.854;8.830;2023-08-17T13:09:12;13.23;;;12.23;;
2029;SDS011;1020;48.854;8.830;2023-08-17T13:11:41;15.00;;;13.80;;
2029;SDS011;1020;48.854;8.830;2023-08-17T13:14:09;14.50;;;13.20;;
2029;SDS011;1020;48.854;8.830;2023-08-17T13:16:35;14.60;;;13.27;;
2029;SDS011;1020;48.854;8.830;2023-08-17T13:19:02;14.60;;;13.50;;
2029;SDS011;1020;48.854;8.830;2023-08-17T13:21:29;14.53;;;13.27;;
2029;SDS011;1020;48.854;8.830;2023-08-17T13:23:56;12.90;;;11.83;;
2029;SDS011;1020;48.854;8.830;2023-08-17T13:26:22;14.00;;;12.70;;
2029;SDS011;1020;48.854;8.830;2023-08-17T13:28:49;13.20;;;12.20;;
2029;SDS011;1020;48.854;8.830;2023-08-17T13:31:17;11.27;;;10.37;;
2029;SDS011;1020;48.854;8.830;2023-08-17T13:33:44;11.67;;;10.77;;
2029;SDS011;1020;48.854;8.830;2023-08-17T13:36:11;11.07;;;10.27;;
2029;SDS011;1020;48.854;8.830;2023-08-17T13:38:37;11.60;;;10.60;;
2029;SDS011;1020;48.854;8.830;2023-08-17T13:41:04;9.80;;;9.00;;
2029;SDS011;1020;48.854;8.830;2023-08-17T13:43:31;9.20;;;8.40;;
2029;SDS011;1020;48.854;8.830;2023-08-17T13:45:58;11.30;;;10.50;;
2029;SDS011;1020;48.854;8.830;2023-08-17T13:48:26;9.20;;;8.50;;
2029;SDS011;1020;48.854;8.830;2023-08-17T13:50:53;11.13;;;10.23;;
2029;SDS011;1020;48.854;8.830;2023-08-17T13:53:19;8.67;;;8.07;;
2029;SDS011;1020;48.854;8.830;2023-08-17T13:55:46;9.30;;;8.70;;
2029;SDS011;1020;48.854;8.830;2023-08-17T13:58:13;8.57;;;7.97;;
2029;SDS011;1020;48.854;8.830;2023-08-17T14:00:40;9.20;;;8.50;;
2029;SDS011;1020;48.854;8.830;2023-08-17T14:03:07;8.70;;;8.10;;
2029;SDS011;1020;48.854;8.830;2023-08-17T14:05:36;9.27;;;8.47;;
2029;SDS011;1020;48.854;8.830;2023-08-17T14:08:03;8.67;;;8.00;;
2029;SDS011;1020;48.854;8.830;2023-08-17T14:10:31;7.60;;;7.10;;
2029;SDS011;1020;48.854;8.830;2023-08-17T14:13:01;8.43;;;7.83;;
2029;SDS011;1020;48.854;8.830;2023-08-17T14:15:28;9.30;;;8.60;;
2029;SDS011;1020;48.854;8.830;2023-08-17T14:17:54;9.10;;;8.50;;
2029;SDS011;1020;48.854;8.830;2023-08-17T14:20:21;10.60;;;9.53;;
2029;SDS011;1020;48.854;8.830;2023-08-17T14:22:49;9.27;;;8.47;;
2029;SDS011;1020;48.854;8.830;2023-08-17T14:25:16;9.73;;;9.03;;
2029;SDS011;1020;48.854;8.830;2023-08-17T14:27:43;8.53;;;7.83;;
2029;SDS011;1020;48.854;8.830;2023-08-17T14:30:10;10.37;;;9.67;;
2029;SDS011;1020;48.854;8.830;2023-08-17T14:32:37;11.33;;;10.43;;
2029;SDS011;1020;48.854;8.830;2023-08-17T14:35:04;10.50;;;9.53;;
2029;SDS011;1020;48.854;8.830;2023-08-17T14:37:31;9.00;;;8.40;;
2029;SDS011;1020;48.854;8.830;2023-08-17T14:39:59;9.33;;;8.43;;
2029;SDS011;1020;48.854;8.830;2023-08-17T14:42:26;9.20;;;8.40;;
2029;SDS011;1020;48.854;8.830;2023-08-17T14:44:54;9.00;;;8.17;;
2029;SDS011;1020;48.854;8.830;2023-08-17T14:47:21;9.30;;;8.57;;
2029;SDS011;1020;48.854;8.830;2023-08-17T14:49:48;9.30;;;8.40;;
2029;SDS011;1020;48.854;8.830;2023-08-17T14:52:14;8.70;;;8.00;;
2029;SDS011;1020;48.854;8.830;2023-08-17T14:54:41;8.63;;;8.03;;
2029;SDS011;1020;48.854;8.830;2023-08-17T14:57:09;7.00;;;6.60;;
2029;SDS011;1020;48.854;8.830;2023-08-17T14:59:36;8.87;;;8.17;;
2029;SDS011;1020;48.854;8.830;2023-08-17T15:02:03;8.00;;;7.40;;
2029;SDS011;1020;48.854;8.830;2023-08-17T15:04:30;7.77;;;7.27;;
2029;SDS011;1020;48.854;8.830;2023-08-17T15:06:57;6.10;;;5.70;;
2029;SDS011;1020;48.854;8.830;2023-08-17T15:09:24;6.20;;;5.70;;
2029;SDS011;1020;48.854;8.830;2023-08-17T15:11:51;4.87;;;4.57;;
2029;SDS011;1020;48.854;8.830;2023-08-17T15:14:19;5.53;;;5.13;;